Time;durP1;ratioP1;P1;durP2;ratioP2;P2;SDS_P1;SDS_P2;PMS_P1;PMS_P2;Temp;Humidity;BMP_temperature;BMP_pressure;BME280_temperature;BME280_humidity;BME280_pressure;Samples;Min_cycle;Max_cycle;Signal;HPM_P1;HPM_P2
2021/10/19 00:01:52;;;;;;;;;;;;;;;5.18;77.68;100113.20;1744207;82;21537;-66
2021/10/19 00:04:18;;;;;;;14.78;8.08;;;;;;;5.22;77.59;100114.41;1724351;82;20213;-65
2021/10/19 00:06:45;;;;;;;11.97;8.88;;;;;;;5.19;77.53;100112.69;1678731;85;21091;-66
2021/10/19 00:09:11;;;;;;;13.80;8.35;;;;;;;5.13;77.62;100119.83;1725614;82;21031;-66
2021/10/19 00:11:38;;;;;;;13.58;8.83;;;;;;;5.07;77.79;100113.14;1744290;82;21042;-66
2021/10/19 00:14:04;;;;;;;13.50;8.50;;;;;;;5.00;77.85;100118.09;1747321;82;20984;-66
2021/10/19 00:16:31;;;;;;;;;;;;;;;4.97;77.82;100119.08;1709518;82;21501;-65
2021/10/19 00:18:57;;;;;;;13.00;8.20;;;;;;;4.97;77.64;100122.61;1747949;82;20417;-66
2021/10/19 00:21:23;;;;;;;14.03;8.45;;;;;;;4.91;77.57;100128.08;1727143;82;21054;-66
2021/10/19 00:23:50;;;;;;;13.15;8.30;;;;;;;4.88;77.52;100133.41;1723351;83;21545;-65
2021/10/19 00:26:16;;;;;;;11.65;7.45;;;;;;;4.85;77.57;100131.69;1740422;82;21043;-65
2021/10/19 00:28:43;;;;;;;13.00;8.30;;;;;;;4.78;77.73;100134.44;1746370;82;21022;-66
2021/10/19 00:31:09;;;;;;;12.05;8.33;;;;;;;4.70;77.92;100137.97;1725873;82;21493;-65
2021/10/19 00:33:36;;;;;;;13.45;9.45;;;;;;;4.64;77.96;100141.02;1729150;82;21129;-65
2021/10/19 00:36:02;;;;;;;11.45;8.80;;;;;;;4.58;78.14;100139.23;1758820;80;21569;-66
2021/10/19 00:38:28;;;;;;;13.40;7.80;;;;;;;4.54;78.21;100136.67;1755642;80;21034;-66
2021/10/19 00:40:55;;;;;;;;;;;;;;;4.50;78.20;100139.50;1719562;82;21023;-66
2021/10/19 00:43:25;;;;;;;12.00;7.97;;;;;;;4.44;78.24;100136.36;1733867;82;20440;-66
2021/10/19 00:45:52;;;;;;;14.78;8.20;;;;;;;4.31;78.56;100135.97;1722103;82;21046;-66
2021/10/19 00:48:20;;;;;;;11.70;7.83;;;;;;;4.26;78.61;100131.75;1742569;82;21022;-66
2021/10/19 00:50:46;;;;;;;14.30;8.35;;;;;;;4.23;78.51;100141.63;1730827;82;21122;-66
2021/10/19 00:53:16;;;;;;;12.07;8.23;;;;;;;4.22;78.28;100141.32;1747179;82;21046;-66
2021/10/19 00:55:43;;;;;;;11.73;7.40;;;;;;;4.18;78.15;100137.41;1737657;82;21640;-67
2021/10/19 00:58:09;;;;;;;11.80;8.05;;;;;;;4.12;78.12;100138.30;1743912;82;20995;-67
2021/10/19 01:00:36;;;;;;;11.43;7.75;;;;;;;4.03;78.29;100140.98;1744204;82;21569;-67
2021/10/19 01:03:04;;;;;;;13.25;7.40;;;;;;;3.95;78.54;100135.86;1723972;82;21018;-67
2021/10/19 01:05:30;;;;;;;;;;;;;;;3.90;78.67;100139.20;1733089;82;21034;-66
2021/10/19 01:07:56;;;;;;;12.28;8.10;;;;;;;3.86;78.63;100136.64;1742786;82;20152;-67
2021/10/19 01:10:23;;;;;;;12.25;7.50;;;;;;;3.85;78.75;100139.05;1747356;82;21027;-67
2021/10/19 01:12:49;;;;;;;13.18;8.20;;;;;;;3.84;78.89;100139.25;1735017;82;21003;-66
2021/10/19 01:15:17;;;;;;;10.32;7.80;;;;;;;3.78;79.05;100138.78;1728173;82;21047;-67
2021/10/19 01:17:50;;;;;;;12.98;8.15;;;;;;;3.71;79.17;100145.56;1730873;82;21471;-66
2021/10/19 01:20:26;;;;;;;14.78;8.55;;;;;;;3.66;79.19;100145.37;1730765;82;21043;-66
2021/10/19 01:22:55;;;;;;;11.68;8.05;;;;;;;3.65;79.09;100153.70;1740316;82;20960;-67
2021/10/19 01:25:24;;;;;;;14.85;8.08;;;;;;;3.61;78.93;100153.81;1746433;82;21026;-67
2021/10/19 01:27:53;;;;;;;14.38;8.30;;;;;;;3.59;78.89;100158.57;1737454;82;21366;-67
2021/10/19 01:30:20;;;;;;;12.53;8.15;;;;;;;3.54;78.93;100160.59;1725140;82;21651;-67
2021/10/19 01:32:47;;;;;;;11.75;7.47;;;;;;;3.46;79.07;100161.66;1727189;82;21510;-67
2021/10/19 01:35:13;;;;;;;13.08;8.35;;;;;;;3.39;79.17;100170.81;1721357;82;21078;-66
2021/10/19 01:37:41;;;;;;;16.30;8.98;;;;;;;3.34;79.24;100171.44;1735622;82;21458;-66
2021/10/19 01:40:13;;;;;;;14.33;8.05;;;;;;;3.30;79.16;100168.87;1714673;82;21074;-66
2021/10/19 01:42:39;;;;;;;11.93;8.10;;;;;;;3.28;79.21;100169.61;1714777;82;21504;-66
2021/10/19 01:45:15;;;;;;;11.35;7.70;;;;;;;3.24;79.24;100167.56;1720204;82;21032;-66
2021/10/19 01:47:42;;;;;;;11.45;7.58;;;;;;;3.20;79.31;100167.67;1736519;82;21502;-66
2021/10/19 01:50:09;;;;;;;12.75;7.92;;;;;;;3.12;79.50;100167.94;1722474;82;21057;-66
2021/10/19 01:52:37;;;;;;;10.85;7.30;;;;;;;3.07;79.70;100171.25;1727720;82;21064;-66
2021/10/19 01:55:04;;;;;;;12.78;7.83;;;;;;;3.03;79.74;100171.37;1713701;82;21020;-66
2021/10/19 01:57:32;;;;;;;11.75;7.62;;;;;;;3.03;79.64;100173.23;1701350;82;20996;-66
2021/10/19 01:59:58;;;;;;;10.82;7.47;;;;;;;3.00;79.63;100173.14;1725674;82;21494;-66
2021/10/19 02:02:25;;;;;;;12.28;7.90;;;;;;;2.98;79.66;100172.51;1718533;82;21482;-67
2021/10/19 02:04:53;;;;;;;15.55;8.08;;;;;;;2.95;79.87;100177.80;1733298;82;20975;-67
2021/10/19 02:07:19;;;;;;;;;;;;;;;2.94;80.12;100174.00;1653301;86;21015;-66
2021/10/19 02:09:46;;;;;;;11.35;7.10;;;;;;;2.88;80.41;100177.00;1691751;84;20427;-66
2021/10/19 02:12:13;;;;;;;12.33;7.20;;;;;;;2.80;80.77;100185.83;1671398;86;21524;-66
2021/10/19 02:14:40;;;;;;;12.03;7.33;;;;;;;2.81;80.82;100185.59;1681063;84;20989;-66
2021/10/19 02:17:07;;;;;;;10.60;7.20;;;;;;;2.84;80.80;100183.83;1687044;84;21008;-66
2021/10/19 02:19:35;;;;;;;13.00;7.97;;;;;;;2.85;80.83;100187.34;1697122;84;21512;-66
2021/10/19 02:22:01;;;;;;;12.82;8.93;;;;;;;2.81;81.03;100193.66;1695263;84;21088;-66
2021/10/19 02:24:28;;;;;;;11.43;7.85;;;;;;;2.80;81.18;100191.20;1698984;84;21587;-66
2021/10/19 02:26:54;;;;;;;14.20;8.60;;;;;;;2.81;81.14;100196.87;1728455;82;21027;-66
2021/10/19 02:29:21;;;;;;;13.45;9.68;;;;;;;2.83;81.01;100200.19;1735004;82;21099;-66
2021/10/19 02:31:48;;;;;;;14.25;9.23;;;;;;;2.82;81.00;100199.87;1640468;86;21131;-67
2021/10/19 02:34:16;;;;;;;14.93;9.18;;;;;;;2.78;81.12;100200.81;1713553;82;21054;-66
2021/10/19 02:36:43;;;;;;;15.18;8.58;;;;;;;2.72;81.21;100206.20;1742748;82;21079;-66
2021/10/19 02:39:09;;;;;;;;;;;;;;;2.72;81.23;100207.55;1735635;82;20980;-67
2021/10/19 02:41:38;;;;;;;12.10;7.60;;;;;;;2.71;81.05;100209.92;1729779;82;20433;-65
2021/10/19 02:44:05;;;;;;;14.83;7.87;;;;;;;2.68;81.16;100214.38;1734574;82;21343;-66
2021/10/19 02:46:33;;;;;;;12.78;7.70;;;;;;;2.68;81.24;100215.20;1743775;82;21039;-67
2021/10/19 02:49:00;;;;;;;11.40;6.90;;;;;;;2.66;81.35;100216.45;1731886;82;20975;-67
2021/10/19 02:51:27;;;;;;;11.83;7.65;;;;;;;2.62;81.60;100219.25;1737786;82;21098;-66
2021/10/19 02:53:54;;;;;;;12.33;7.10;;;;;;;2.66;81.69;100227.21;1733621;82;20999;-67
2021/10/19 02:56:21;;;;;;;10.68;6.75;;;;;;;2.70;81.62;100227.08;1736757;82;21022;-67
2021/10/19 02:58:47;;;;;;;;;;;;;;;2.70;81.50;100232.45;1741946;82;21470;-67
2021/10/19 03:01:14;;;;;;;10.28;6.60;;;;;;;2.66;81.48;100236.08;1729490;82;20105;-67
2021/10/19 03:03:41;;;;;;;9.38;6.22;;;;;;;2.55;81.72;100231.88;1740318;82;21011;-67
2021/10/19 03:06:07;;;;;;;11.90;6.20;;;;;;;2.51;81.76;100228.77;1730484;82;21089;-67
2021/10/19 03:08:33;;;;;;;11.12;6.12;;;;;;;2.54;81.53;100231.55;1743504;82;20971;-67
2021/10/19 03:11:00;;;;;;;10.63;5.30;;;;;;;2.54;81.35;100233.72;1743417;82;21007;-66
2021/10/19 03:13:28;;;;;;;9.40;5.90;;;;;;;2.54;81.22;100231.55;1705813;82;21066;-66
2021/10/19 03:15:56;;;;;;;9.05;5.62;;;;;;;2.45;81.28;100233.09;1741258;82;21351;-67
2021/10/19 03:18:22;;;;;;;9.60;5.97;;;;;;;2.39;81.39;100240.65;1726362;82;20983;-66
2021/10/19 03:20:49;;;;;;;;;;;;;;;2.35;81.42;100241.26;1739762;82;21525;-67
2021/10/19 03:23:16;;;;;;;8.88;5.90;;;;;;;2.33;81.40;100240.65;1750314;82;20149;-66
2021/10/19 03:25:43;;;;;;;9.15;5.37;;;;;;;2.25;81.55;100236.81;1737201;82;21629;-66
2021/10/19 03:28:09;;;;;;;9.55;6.00;;;;;;;2.23;81.66;100234.86;1752626;81;20955;-66
2021/10/19 03:30:36;;;;;;;9.93;6.30;;;;;;;2.21;81.66;100241.77;1729679;81;21656;-66
2021/10/19 03:33:03;;;;;;;9.33;5.78;;;;;;;2.17;81.74;100239.18;1706731;82;21086;-67
2021/10/19 03:35:29;;;;;;;;;;;;;;;2.12;81.93;100248.90;1740118;82;21058;-66
2021/10/19 03:37:55;;;;;;;11.33;6.75;;;;;;;2.09;82.02;100244.73;1753155;82;20126;-66
2021/10/19 03:40:22;;;;;;;13.05;6.37;;;;;;;2.06;82.01;100249.69;1752014;82;21085;-66
2021/10/19 03:42:49;;;;;;;10.58;5.95;;;;;;;2.07;81.96;100242.78;1749699;82;21517;-67
2021/10/19 03:45:16;;;;;;;11.12;6.45;;;;;;;2.07;81.88;100245.98;1752660;82;21043;-66
2021/10/19 03:47:44;;;;;;;12.28;7.85;;;;;;;2.03;81.92;100241.54;1742538;82;21007;-66
2021/10/19 03:50:12;;;;;;;10.70;6.55;;;;;;;1.98;82.06;100248.05;1741822;82;21541;-66
2021/10/19 03:52:38;;;;;;;9.38;5.97;;;;;;;1.95;82.15;100249.27;1738779;82;21027;-66
2021/10/19 03:55:06;;;;;;;11.65;6.72;;;;;;;1.97;82.12;100255.79;1702587;83;21054;-66
2021/10/19 03:57:34;;;;;;;11.83;6.55;;;;;;;1.95;82.14;100257.32;1725217;82;21537;-66
2021/10/19 04:00:00;;;;;;;12.03;6.90;;;;;;;1.95;82.22;100258.66;1742918;82;21130;-66
2021/10/19 04:02:27;;;;;;;13.08;7.05;;;;;;;1.93;82.29;100262.59;1733019;82;20967;-66
2021/10/19 04:04:53;;;;;;;11.48;7.30;;;;;;;1.88;82.42;100261.02;1753042;82;21611;-66
2021/10/19 04:07:20;;;;;;;11.57;7.30;;;;;;;1.87;82.51;100266.09;1751270;82;21554;-67
2021/10/19 04:09:46;;;;;;;10.10;6.33;;;;;;;1.88;82.48;100268.56;1743853;82;21022;-65
2021/10/19 04:12:14;;;;;;;15.55;6.80;;;;;;;1.88;82.42;100271.25;1738576;82;21489;-67
2021/10/19 04:14:42;;;;;;;10.43;5.90;;;;;;;1.88;82.44;100269.07;1723746;82;21378;-67
2021/10/19 04:17:08;;;;;;;8.95;5.75;;;;;;;1.87;82.53;100270.95;1723537;83;21066;-67
2021/10/19 04:19:36;;;;;;;9.75;5.78;;;;;;;1.85;82.61;100268.14;1676260;85;21443;-66
2021/10/19 04:22:03;;;;;;;9.95;5.92;;;;;;;1.80;82.71;100275.48;1727085;82;21565;-67
2021/10/19 04:24:29;;;;;;;9.00;6.35;;;;;;;1.80;82.69;100277.33;1753577;82;21494;-67
2021/10/19 04:26:56;;;;;;;;;;;;;;;1.80;82.64;100282.19;1755949;82;21055;-67
2021/10/19 04:29:22;;;;;;;10.63;6.35;;;;;;;1.81;82.59;100291.87;1732537;82;20129;-67
2021/10/19 04:31:49;;;;;;;9.40;6.45;;;;;;;1.75;82.66;100283.80;1729461;82;21030;-67
2021/10/19 04:36:36;;;;;;;11.08;7.03;;;;;;;1.79;82.72;100293.11;1771103;79;22850;-65
2021/10/19 04:39:04;;;;;;;14.00;7.25;;;;;;;1.66;82.90;100295.25;1737807;82;21007;-64
2021/10/19 04:41:32;;;;;;;10.78;6.50;;;;;;;1.67;82.90;100301.42;1752971;81;21059;-64
2021/10/19 04:43:58;;;;;;;11.28;6.92;;;;;;;1.69;82.83;100312.29;1747929;82;21070;-65
2021/10/19 04:46:24;;;;;;;12.20;6.95;;;;;;;1.72;82.72;100305.69;1734422;82;21031;-66
2021/10/19 04:48:52;;;;;;;10.58;6.28;;;;;;;1.70;82.67;100301.84;1740821;82;21007;-65
2021/10/19 04:51:19;;;;;;;13.28;6.33;;;;;;;1.71;82.74;100302.67;1749250;82;21500;-66
2021/10/19 04:53:47;;;;;;;11.85;6.95;;;;;;;1.71;82.75;100304.85;1729868;81;21560;-65
2021/10/19 04:56:14;;;;;;;11.53;6.97;;;;;;;1.67;82.82;100307.62;1733571;82;21540;-66
2021/10/19 04:58:41;;;;;;;11.93;7.12;;;;;;;1.68;82.84;100314.65;1735175;82;20968;-67
2021/10/19 05:01:08;;;;;;;14.03;8.25;;;;;;;1.72;82.71;100321.79;1753060;82;21129;-67
2021/10/19 05:03:35;;;;;;;14.80;7.70;;;;;;;1.74;82.60;100320.55;1732850;82;21046;-67
2021/10/19 05:06:02;;;;;;;;;;;;;;;1.76;82.55;100321.70;1725528;83;21078;-67
2021/10/19 05:08:28;;;;;;;12.65;6.45;;;;;;;1.77;82.57;100324.71;1723289;83;20140;-67
2021/10/19 05:10:55;;;;;;;10.38;6.80;;;;;;;1.69;82.80;100328.39;1723012;83;21059;-66
2021/10/19 05:13:23;;;;;;;11.55;6.37;;;;;;;1.69;82.87;100327.56;1734648;82;20999;-67
2021/10/19 05:15:51;;;;;;;12.47;6.58;;;;;;;1.72;82.79;100333.36;1752685;82;21082;-67
2021/10/19 05:18:17;;;;;;;12.40;6.60;;;;;;;1.77;82.72;100334.91;1750647;82;21003;-67
2021/10/19 05:20:44;;;;;;;10.60;6.33;;;;;;;1.82;82.66;100345.05;1752512;82;21079;-67
2021/10/19 05:23:12;;;;;;;12.07;6.90;;;;;;;1.84;82.65;100345.70;1752993;82;21084;-66
2021/10/19 05:25:39;;;;;;;10.85;5.80;;;;;;;1.81;82.82;100344.22;1752871;82;21039;-66
2021/10/19 05:28:05;;;;;;;10.60;6.78;;;;;;;1.85;82.97;100345.99;1750853;82;20991;-66
2021/10/19 05:30:33;;;;;;;10.08;6.78;;;;;;;1.91;82.93;100353.27;1752984;81;21573;-65
2021/10/19 05:32:59;;;;;;;10.40;6.75;;;;;;;1.97;82.95;100357.83;1739805;82;20990;-66
2021/10/19 05:35:25;;;;;;;11.00;7.33;;;;;;;2.05;82.94;100355.48;1753416;81;21942;-67
2021/10/19 05:37:52;;;;;;;14.58;8.78;;;;;;;2.12;82.96;100351.80;1737908;82;21435;-67
2021/10/19 05:40:18;;;;;;;15.08;8.80;;;;;;;2.18;82.97;100356.86;1736247;82;21059;-67
2021/10/19 05:42:45;;;;;;;17.73;8.75;;;;;;;2.24;83.02;100354.19;1726337;82;20983;-66
2021/10/19 05:45:11;;;;;;;17.52;8.85;;;;;;;2.36;82.96;100357.95;1724091;83;21059;-67
2021/10/19 05:47:41;;;;;;;13.68;7.50;;;;;;;2.49;82.90;100359.81;1738887;82;21007;-67
2021/10/19 05:50:08;;;;;;;14.50;7.80;;;;;;;2.63;82.81;100363.34;1736378;82;21094;-66
2021/10/19 05:52:34;;;;;;;12.78;6.40;;;;;;;2.77;82.69;100367.70;1739954;82;21539;-67
2021/10/19 05:55:01;;;;;;;11.73;7.42;;;;;;;2.94;82.54;100367.63;1751308;82;21141;-66
2021/10/19 05:57:27;;;;;;;11.10;6.35;;;;;;;3.11;82.20;100363.48;1745326;82;21504;-66
2021/10/19 05:59:54;;;;;;;11.43;7.20;;;;;;;3.32;81.88;100364.59;1720192;83;20991;-67
2021/10/19 06:02:21;;;;;;;10.32;6.00;;;;;;;3.59;81.60;100361.31;1725179;82;21513;-67
2021/10/19 06:04:47;;;;;;;10.40;6.22;;;;;;;3.81;81.12;100373.98;1723712;82;21066;-67
2021/10/19 06:07:13;;;;;;;10.45;5.40;;;;;;;4.00;80.52;100371.20;1747815;82;20975;-67
2021/10/19 06:09:40;;;;;;;10.98;5.85;;;;;;;4.29;79.98;100374.39;1725852;82;21019;-67
2021/10/19 06:12:06;;;;;;;11.43;5.80;;;;;;;4.57;79.37;100378.09;1746292;81;21054;-68
2021/10/19 06:14:32;;;;;;;;;;;;;;;4.71;78.54;100379.11;1726077;82;21058;-67
2021/10/19 06:16:59;;;;;;;8.70;5.47;;;;;;;4.81;78.19;100388.09;1730492;82;20122;-67
2021/10/19 06:19:25;;;;;;;8.83;5.55;;;;;;;4.93;78.14;100379.58;1753623;82;21343;-67
2021/10/19 06:21:51;;;;;;;11.97;5.83;;;;;;;5.21;77.46;100375.11;1737588;82;21549;-69
2021/10/19 06:24:18;;;;;;;8.80;5.22;;;;;;;5.53;76.87;100384.75;1723392;83;21094;-68
2021/10/19 06:26:44;;;;;;;6.65;5.08;;;;;;;5.84;76.37;100382.46;1745014;82;21078;-66
2021/10/19 06:29:11;;;;;;;;;;;;;;;6.10;75.58;100382.16;1735680;81;20963;-67
2021/10/19 06:31:38;;;;;;;8.93;5.28;;;;;;;6.31;74.69;100378.98;1725169;82;20502;-67
2021/10/19 06:34:04;;;;;;;;;;;;;;;6.45;74.22;100385.86;1730907;82;20990;-66
2021/10/19 06:36:31;;;;;;;10.10;5.00;;;;;;;6.64;73.21;100387.99;1752811;82;20470;-66
2021/10/19 06:38:57;;;;;;;8.65;5.20;;;;;;;6.72;73.29;100388.20;1753270;82;21337;-66
2021/10/19 06:41:24;;;;;;;12.28;6.65;;;;;;;6.99;72.74;100391.62;1753195;82;21058;-66
2021/10/19 06:43:51;;;;;;;10.43;7.35;;;;;;;7.35;72.24;100389.77;1753547;82;21511;-67
2021/10/19 06:46:17;;;;;;;10.28;5.70;;;;;;;7.72;70.96;100389.02;1726522;82;21126;-66
2021/10/19 06:48:43;;;;;;;7.87;4.87;;;;;;;7.85;69.20;100390.94;1723903;82;20967;-66
2021/10/19 06:51:10;;;;;;;7.37;5.08;;;;;;;7.85;68.54;100387.39;1723629;83;21078;-66
2021/10/19 06:53:36;;;;;;;5.92;4.12;;;;;;;7.79;67.59;100386.48;1733170;82;20991;-66
2021/10/19 06:56:04;;;;;;;9.40;5.10;;;;;;;7.78;67.46;100384.81;1753490;82;21674;-66
2021/10/19 06:58:30;;;;;;;10.93;6.17;;;;;;;7.95;67.59;100388.97;1726064;82;21315;-66
2021/10/19 07:00:59;;;;;;;11.57;5.85;;;;;;;8.12;66.73;100390.39;1753055;82;21075;-66
2021/10/19 07:03:26;;;;;;;9.53;6.40;;;;;;;8.32;66.21;100391.69;1750872;82;20996;-66
2021/10/19 07:05:53;;;;;;;9.38;5.62;;;;;;;8.54;65.05;100393.73;1723039;83;21062;-64
2021/10/19 07:08:19;;;;;;;11.00;6.60;;;;;;;8.63;64.43;100389.02;1725452;82;20975;-67
2021/10/19 07:10:46;;;;;;;8.10;4.97;;;;;;;8.87;64.48;100395.14;1723189;83;21604;-67
2021/10/19 07:13:12;;;;;;;6.67;4.85;;;;;;;9.15;63.63;100390.19;1723552;82;21039;-67
2021/10/19 07:15:40;;;;;;;7.75;4.50;;;;;;;9.37;62.55;100393.28;1723000;83;21095;-68
2021/10/19 07:18:09;;;;;;;5.15;3.77;;;;;;;9.54;62.31;100385.11;1700305;83;21532;-67
2021/10/19 07:20:37;;;;;;;6.25;3.47;;;;;;;9.83;61.24;100388.52;1723137;83;21547;-68
2021/10/19 07:23:04;;;;;;;5.50;3.80;;;;;;;10.04;60.43;100378.72;1723196;83;21056;-67
2021/10/19 07:25:30;;;;;;;5.42;3.70;;;;;;;10.23;58.87;100385.00;1722882;83;21158;-68
2021/10/19 07:27:57;;;;;;;8.38;4.05;;;;;;;10.27;58.50;100382.03;1746021;82;21375;-67
2021/10/19 07:30:24;;;;;;;5.05;3.22;;;;;;;10.40;57.96;100384.92;1753151;82;21060;-67
2021/10/19 07:32:53;;;;;;;7.60;4.42;;;;;;;10.51;57.08;100383.96;1753299;82;21050;-67
2021/10/19 07:35:21;;;;;;;6.90;4.28;;;;;;;10.51;56.35;100383.13;1751555;81;21062;-67
2021/10/19 07:37:48;;;;;;;12.60;7.35;;;;;;;10.58;56.79;100381.86;1723063;82;21027;-66
2021/10/19 07:40:19;;;;;;;;;;;;;;;10.73;55.77;100386.65;1714069;82;21079;-67
2021/10/19 07:42:45;;;;;;;7.20;3.98;;;;;;;10.67;55.54;100378.95;1710010;82;20121;-67
2021/10/19 07:45:12;;;;;;;9.18;5.22;;;;;;;10.69;56.09;100378.70;1710287;82;21059;-68
2021/10/19 07:47:44;;;;;;;8.60;4.70;;;;;;;10.98;55.47;100382.24;1709737;83;21023;-68
2021/10/19 07:50:12;;;;;;;8.85;5.08;;;;;;;11.25;54.46;100383.58;1709604;84;21035;-68
2021/10/19 07:52:39;;;;;;;6.50;4.35;;;;;;;11.46;53.37;100392.19;1662216;86;21440;-68
2021/10/19 07:55:06;;;;;;;8.63;5.12;;;;;;;11.45;52.67;100382.90;1709895;84;21067;-68
2021/10/19 07:57:46;;;;;;;5.62;3.70;;;;;;;11.39;52.42;100387.50;1710000;83;20941;-68
2021/10/19 08:00:14;;;;;;;7.97;4.50;;;;;;;11.38;52.05;100394.03;1721444;82;21032;-68
2021/10/19 08:02:44;;;;;;;6.75;4.00;;;;;;;11.45;52.10;100396.53;1739358;82;20996;-68
2021/10/19 08:05:15;;;;;;;9.55;5.12;;;;;;;11.49;51.46;100395.75;1739174;82;21028;-68
2021/10/19 08:07:42;;;;;;;7.97;4.40;;;;;;;11.46;51.26;100390.83;1739210;82;21019;-67
2021/10/19 08:10:11;;;;;;;7.53;4.45;;;;;;;11.60;51.86;100393.09;1732699;82;21071;-67
2021/10/19 08:12:39;;;;;;;4.20;2.10;;;;;;;11.88;50.41;100398.21;1709748;82;21098;-68
2021/10/19 08:15:06;;;;;;;;;;;;;;;11.91;49.62;100401.23;1741695;82;21036;-67
2021/10/19 08:17:32;;;;;;;7.33;3.12;;;;;;;11.98;49.57;100399.09;1718394;82;20417;-67
2021/10/19 08:19:59;;;;;;;4.90;2.30;;;;;;;12.01;49.54;100399.09;1719135;82;21027;-67
2021/10/19 08:22:31;;;;;;;3.08;1.65;;;;;;;12.28;49.69;100400.33;1709823;84;21585;-67
2021/10/19 08:24:58;;;;;;;4.15;2.35;;;;;;;12.47;47.85;100396.02;1709676;83;21510;-68
2021/10/19 08:27:24;;;;;;;3.95;2.35;;;;;;;12.46;47.98;100400.68;1709734;84;21078;-67
2021/10/19 08:29:51;;;;;;;5.08;2.40;;;;;;;12.52;47.67;100403.41;1651445;86;21075;-68
2021/10/19 08:32:18;;;;;;;2.55;1.25;;;;;;;12.69;47.58;100403.46;1709684;84;21105;-67
2021/10/19 08:34:45;;;;;;;3.75;1.80;;;;;;;12.72;46.16;100411.11;1709539;84;21047;-66
2021/10/19 08:37:12;;;;;;;3.50;1.65;;;;;;;12.64;46.59;100409.47;1715559;83;21063;-68
2021/10/19 08:39:39;;;;;;;2.92;1.37;;;;;;;12.72;46.25;100413.02;1744314;82;21513;-68
2021/10/19 08:42:05;;;;;;;;;;;;;;;12.88;44.73;100416.08;1720374;82;21086;-68
2021/10/19 08:44:33;;;;;;;3.00;1.27;;;;;;;12.92;43.83;100428.11;1747210;81;20148;-67
2021/10/19 08:47:00;;;;;;;;;;;;;;;12.76;44.49;100417.69;1749678;82;21087;-68
2021/10/19 08:49:27;;;;;;;3.55;1.80;;;;;;;13.01;44.13;100411.45;1733530;82;20109;-67
2021/10/19 08:51:53;;;;;;;2.33;1.30;;;;;;;13.00;43.89;100424.86;1633542;85;21163;-67
2021/10/19 08:54:20;;;;;;;6.25;1.27;;;;;;;13.02;43.24;100415.83;1671280;86;21624;-67
2021/10/19 08:56:47;;;;;;;3.30;1.70;;;;;;;13.33;42.94;100413.95;1719690;82;21130;-67
2021/10/19 08:59:13;;;;;;;2.80;1.25;;;;;;;13.64;41.75;100416.95;1747473;82;21031;-67
2021/10/19 09:01:40;;;;;;;2.37;1.00;;;;;;;13.86;41.46;100420.20;1690261;82;21094;-67
2021/10/19 09:04:12;;;;;;;2.70;0.98;;;;;;;14.09;40.33;100415.23;1747515;82;20972;-66
2021/10/19 09:06:40;;;;;;;1.75;0.85;;;;;;;13.94;39.64;100427.03;1747302;82;21099;-67
2021/10/19 09:09:16;;;;;;;2.58;1.32;;;;;;;13.56;39.64;100425.73;1721619;82;20951;-67
2021/10/19 09:11:47;;;;;;;3.87;1.50;;;;;;;13.10;40.51;100430.37;1717667;83;21059;-67
2021/10/19 09:14:15;;;;;;;2.22;0.93;;;;;;;13.10;41.21;100421.34;1731741;82;20983;-67
2021/10/19 09:16:46;;;;;;;2.85;1.00;;;;;;;13.28;40.29;100425.73;1747005;82;21079;-65
2021/10/19 09:19:15;;;;;;;3.52;0.90;;;;;;;13.31;40.33;100425.73;1724567;81;20948;-67
2021/10/19 09:21:50;;;;;;;2.77;1.00;;;;;;;13.61;39.52;100424.88;1717418;83;21137;-66
2021/10/19 09:24:30;;;;;;;2.30;1.07;;;;;;;13.93;39.47;100424.02;1717778;83;21529;-68
2021/10/19 09:27:18;;;;;;;2.12;1.00;;;;;;;14.38;38.87;100414.31;1732331;82;21035;-66
2021/10/19 09:29:47;;;;;;;2.45;1.00;;;;;;;14.83;38.21;100410.55;1747226;82;20983;-68
2021/10/19 09:32:15;;;;;;;2.62;0.85;;;;;;;15.18;37.67;100414.96;1747287;82;21735;-68
2021/10/19 09:34:45;;;;;;;4.20;1.30;;;;;;;15.20;36.75;100412.74;1721435;82;20971;-68
2021/10/19 09:37:20;;;;;;;2.33;1.30;;;;;;;15.00;37.26;100409.33;1712561;83;21023;-65
2021/10/19 09:39:49;;;;;;;2.62;0.75;;;;;;;15.21;36.81;100415.76;1709911;83;20987;-68
2021/10/19 09:42:24;;;;;;;2.33;0.90;;;;;;;15.14;36.02;100409.78;1721051;82;20984;-67
2021/10/19 09:45:01;;;;;;;4.35;1.00;;;;;;;14.70;35.90;100413.09;1739277;82;20995;-67
2021/10/19 09:47:39;;;;;;;1.45;0.85;;;;;;;14.03;36.88;100411.67;1718275;82;21087;-68
2021/10/19 09:50:07;;;;;;;2.17;1.27;;;;;;;13.46;37.75;100429.27;1739313;82;21102;-68
2021/10/19 09:52:39;;;;;;;5.62;3.22;;;;;;;12.90;38.43;100418.80;1728497;82;21036;-67
2021/10/19 09:55:09;;;;;;;4.22;1.62;;;;;;;12.49;40.15;100411.60;1710017;82;21031;-68
2021/10/19 09:57:36;;;;;;;3.77;1.80;;;;;;;12.24;39.32;100410.95;1709692;83;21044;-69
2021/10/19 10:00:04;;;;;;;2.52;1.50;;;;;;;11.90;39.43;100422.77;1709889;83;21158;-66
2021/10/19 10:02:34;;;;;;;3.72;1.70;;;;;;;11.43;40.08;100409.08;1735524;82;21052;-68
2021/10/19 10:05:01;;;;;;;4.95;1.60;;;;;;;11.25;41.05;100414.92;1739372;82;21023;-68
2021/10/19 10:07:30;;;;;;;3.47;1.80;;;;;;;11.07;41.47;100411.21;1739208;82;21027;-68
2021/10/19 10:09:58;;;;;;;3.55;1.90;;;;;;;10.89;42.13;100393.34;1739378;82;20979;-68
2021/10/19 10:12:30;;;;;;;3.40;1.55;;;;;;;10.77;41.86;100404.91;1720043;82;21055;-68
2021/10/19 10:14:56;;;;;;;9.95;1.70;;;;;;;10.64;41.99;100407.23;1709670;84;21394;-69
2021/10/19 10:17:23;;;;;;;5.33;2.50;;;;;;;10.57;41.90;100401.98;1709670;84;21122;-68
2021/10/19 10:19:50;;;;;;;3.92;1.95;;;;;;;10.49;42.17;100402.44;1641082;86;21051;-67
2021/10/19 10:22:28;;;;;;;2.90;1.30;;;;;;;10.50;42.61;100395.92;1709878;84;21058;-68
2021/10/19 10:24:50;;;;;;;4.12;1.60;;;;;;;10.57;43.29;100399.27;1709516;84;21003;-68
2021/10/19 10:27:22;;;;;;;4.92;1.98;;;;;;;10.64;43.25;100399.06;1709284;83;21043;-68
2021/10/19 10:29:49;;;;;;;3.70;1.85;;;;;;;10.61;43.25;100409.93;1663694;86;21131;-68
2021/10/19 10:32:22;;;;;;;3.45;1.37;;;;;;;10.60;42.90;100399.28;1711571;82;21114;-65
2021/10/19 10:35:07;;;;;;;3.80;1.98;;;;;;;10.62;42.00;100393.06;1662023;86;21050;-66
2021/10/19 10:37:55;;;;;;;2.72;1.00;;;;;;;10.63;41.65;100387.91;1709784;83;21067;-66
2021/10/19 10:40:35;;;;;;;2.30;1.00;;;;;;;10.66;41.42;100389.58;1709917;84;21047;-66
2021/10/19 10:43:25;;;;;;;3.27;1.10;;;;;;;10.66;40.56;100389.58;1709518;83;21071;-67
2021/10/19 10:46:11;;;;;;;2.98;0.90;;;;;;;10.59;40.86;100383.52;1722647;82;21537;-68
2021/10/19 10:48:38;;;;;;;2.25;0.90;;;;;;;10.59;41.45;100390.86;1739301;82;21514;-67
2021/10/19 10:51:06;;;;;;;3.35;1.07;;;;;;;10.59;41.40;100386.23;1739207;82;21015;-66
2021/10/19 10:53:37;;;;;;;3.08;1.40;;;;;;;10.59;41.79;100388.13;1738828;82;21031;-66
2021/10/19 10:56:05;;;;;;;2.62;1.20;;;;;;;10.55;41.73;100393.80;1709831;83;21055;-67
2021/10/19 10:58:36;;;;;;;3.92;1.32;;;;;;;10.54;40.88;100388.89;1709890;84;21011;-67
2021/10/19 11:01:27;;;;;;;3.37;1.50;;;;;;;10.48;40.27;100385.30;1709764;84;21051;-66
2021/10/19 11:04:07;;;;;;;3.67;1.72;;;;;;;10.49;39.91;100380.66;1709541;84;21060;-67
2021/10/19 11:06:36;;;;;;;2.25;0.85;;;;;;;10.52;40.47;100384.79;1709432;82;21091;-68
2021/10/19 11:09:16;;;;;;;3.20;1.30;;;;;;;10.56;39.32;100377.76;1709934;83;20972;-68
2021/10/19 11:11:47;;;;;;;2.83;0.90;;;;;;;10.52;39.33;100386.15;1709894;83;21546;-69
2021/10/19 11:14:15;;;;;;;2.98;1.20;;;;;;;10.53;38.99;100387.77;1727587;82;21019;-69
2021/10/19 11:16:46;;;;;;;4.90;1.20;;;;;;;10.55;39.09;100376.11;1739166;82;21122;-68
2021/10/19 11:19:33;;;;;;;4.20;1.25;;;;;;;10.58;38.96;100377.77;1718494;82;21012;-68
2021/10/19 11:22:04;;;;;;;4.95;1.52;;;;;;;10.60;38.64;100380.23;1719230;82;21098;-66
2021/10/19 11:24:34;;;;;;;2.77;1.37;;;;;;;10.62;38.61;100376.73;1736713;82;21443;-65
2021/10/19 11:27:02;;;;;;;3.10;1.27;;;;;;;10.63;38.71;100383.83;1739236;82;21056;-65
2021/10/19 11:29:33;;;;;;;3.08;1.20;;;;;;;10.61;38.85;100375.90;1739003;82;21016;-65
2021/10/19 11:32:01;;;;;;;2.47;1.00;;;;;;;10.56;38.59;100372.31;1738005;82;21090;-66
2021/10/19 11:34:27;;;;;;;2.27;1.10;;;;;;;10.53;38.73;100365.45;1709541;84;21087;-69
2021/10/19 11:36:53;;;;;;;4.92;1.60;;;;;;;10.55;38.63;100371.48;1709508;83;21087;-64
2021/10/19 11:39:20;;;;;;;6.05;2.77;;;;;;;10.58;38.95;100368.25;1710213;84;21035;-67